Time;durP1;ratioP1;P1;durP2;ratioP2;P2;SDS_P1;SDS_P2;PMS_P1;PMS_P2;Temp;Humidity;BMP_temperature;BMP_pressure;BME280_temperature;BME280_humidity;BME280_pressure;Samples;Min_cycle;Max_cycle;Signal;HPM_P1;HPM_P2
2022/12/02 00:01:03;;;;;;;18.05;10.82;;;;;;;10.46;69.85;100898.47;4994754;28;20056;-74
2022/12/02 00:03:35;;;;;;;18.85;11.25;;;;;;;10.46;69.99;100903.81;4996179;28;20081;-75
2022/12/02 00:06:04;;;;;;;21.17;11.45;;;;;;;10.47;69.91;100905.53;4996078;28;20085;-74
2022/12/02 00:08:35;;;;;;;19.60;11.25;;;;;;;10.48;69.67;100907.25;4996079;28;20050;-74
2022/12/02 00:11:22;;;;;;;19.90;11.00;;;;;;;10.46;70.07;100894.00;4996621;28;20042;-75
2022/12/02 00:13:51;;;;;;;19.83;11.90;;;;;;;10.46;69.83;100895.81;4996010;28;20046;-74
2022/12/02 00:16:21;;;;;;;18.33;10.90;;;;;;;10.44;69.85;100895.88;4995812;28;20078;-75
2022/12/02 00:18:50;;;;;;;19.23;11.80;;;;;;;10.45;70.05;100896.75;4996012;28;20141;-75
2022/12/02 00:21:18;;;;;;;18.65;11.18;;;;;;;10.42;69.90;100904.88;4995725;28;20050;-74
2022/12/02 00:23:48;;;;;;;18.58;11.90;;;;;;;10.44;69.64;100900.38;4994728;28;20145;-74
2022/12/02 00:26:17;;;;;;;19.15;11.60;;;;;;;10.43;69.67;100898.63;4995535;28;20061;-73
2022/12/02 00:28:45;;;;;;;19.63;12.10;;;;;;;10.42;69.44;100899.53;4996108;28;20046;-74
2022/12/02 00:31:13;;;;;;;20.15;11.57;;;;;;;10.42;69.89;100910.22;4995311;28;20557;-73
2022/12/02 00:33:43;;;;;;;19.13;12.02;;;;;;;10.41;69.85;100905.81;4996494;28;20061;-73
2022/12/02 00:36:11;;;;;;;18.35;11.73;;;;;;;10.40;69.85;100912.09;4995309;28;20498;-73
2022/12/02 00:38:39;;;;;;;18.60;12.15;;;;;;;10.39;69.60;100903.25;4995979;28;20053;-74
2022/12/02 00:41:09;;;;;;;19.17;12.18;;;;;;;10.38;69.99;100903.31;4995375;28;20483;-74
2022/12/02 00:46:31;;;;;;;21.25;12.63;;;;;;;10.38;69.66;100897.97;4995525;28;20057;-74
2022/12/02 00:49:01;;;;;;;19.73;11.73;;;;;;;10.36;69.76;100898.06;4994251;28;20050;-73
2022/12/02 00:51:29;;;;;;;16.17;10.95;;;;;;;10.35;69.79;100896.34;4995202;28;20043;-75
2022/12/02 00:53:58;;;;;;;18.83;12.23;;;;;;;10.38;69.66;100895.31;4995169;28;20050;-74
2022/12/02 00:56:27;;;;;;;20.25;12.02;;;;;;;10.34;69.77;100889.28;4994965;28;20052;-74
2022/12/02 00:58:55;;;;;;;21.10;12.00;;;;;;;10.30;69.64;100893.88;4993974;28;20046;-74
2022/12/02 01:01:24;;;;;;;19.83;11.73;;;;;;;10.26;69.81;100884.31;4994676;28;20057;-74
2022/12/02 01:03:52;;;;;;;19.42;12.65;;;;;;;10.29;69.81;100892.16;4995032;28;20411;-73
2022/12/02 01:06:21;;;;;;;18.67;12.20;;;;;;;10.32;69.77;100892.00;4993990;28;20046;-74
2022/12/02 01:08:49;;;;;;;21.60;13.15;;;;;;;10.30;69.67;100887.69;4995261;28;20097;-75
2022/12/02 01:11:17;;;;;;;22.52;13.75;;;;;;;10.30;69.76;100893.88;4994903;28;20065;-73
2022/12/02 01:13:47;;;;;;;18.23;12.15;;;;;;;10.28;69.73;100879.75;4995283;28;20053;-74
2022/12/02 01:16:15;;;;;;;18.88;12.80;;;;;;;10.31;69.63;100884.94;4996337;28;20046;-74
2022/12/02 01:18:43;;;;;;;18.90;11.93;;;;;;;10.27;69.85;100883.38;5003049;28;20094;-74
2022/12/02 01:21:12;;;;;;;20.60;13.07;;;;;;;10.26;69.82;100884.31;4995567;28;20042;-74
2022/12/02 01:23:40;;;;;;;19.85;12.98;;;;;;;10.26;69.61;100878.13;4994845;28;20494;-75
2022/12/02 01:26:08;;;;;;;21.25;12.57;;;;;;;10.26;69.61;100880.78;4994327;28;20101;-74
2022/12/02 01:28:37;;;;;;;20.55;13.00;;;;;;;10.24;69.73;100878.19;4994642;28;20042;-75
2022/12/02 01:31:06;;;;;;;18.60;12.27;;;;;;;10.21;69.53;100878.28;4994993;28;20061;-73
2022/12/02 01:33:34;;;;;;;20.98;13.02;;;;;;;10.21;69.80;100875.63;4994946;28;20104;-73
2022/12/02 01:36:02;;;;;;;19.77;12.90;;;;;;;10.20;69.75;100865.91;4994408;28;20603;-72
2022/12/02 01:38:30;;;;;;;20.52;13.07;;;;;;;10.18;69.92;100867.78;4994434;28;20384;-74
2022/12/02 01:40:59;;;;;;;22.40;13.57;;;;;;;10.19;69.69;100866.00;4994195;28;20043;-74
2022/12/02 01:43:28;;;;;;;19.63;13.02;;;;;;;10.18;69.58;100874.94;4994711;28;20046;-73
2022/12/02 01:45:56;;;;;;;19.90;12.32;;;;;;;10.17;69.76;100866.06;4994385;28;20395;-74
2022/12/02 01:48:26;;;;;;;18.55;12.30;;;;;;;10.17;69.96;100867.88;4994692;28;20038;-73
2022/12/02 01:50:54;;;;;;;20.42;12.95;;;;;;;10.19;69.71;100874.84;4994454;28;20050;-73
2022/12/02 01:53:23;;;;;;;20.98;13.35;;;;;;;10.17;69.68;100866.06;4994404;28;20042;-75
2022/12/02 01:55:51;;;;;;;21.23;13.20;;;;;;;10.15;69.77;100870.63;4994274;28;20057;-73
2022/12/02 01:58:23;;;;;;;20.13;13.20;;;;;;;10.16;69.61;100867.00;4994215;28;20050;-75
2022/12/02 02:00:51;;;;;;;20.75;13.02;;;;;;;10.16;69.62;100869.69;4994810;28;20054;-74
2022/12/02 02:03:20;;;;;;;18.45;12.25;;;;;;;10.17;69.62;100868.72;4998297;28;20073;-74
2022/12/02 02:05:50;;;;;;;21.83;13.25;;;;;;;10.13;69.93;100864.47;4998529;28;20038;-74
2022/12/02 02:08:18;;;;;;;20.23;12.82;;;;;;;10.11;69.74;100871.69;4998206;28;20054;-74
2022/12/02 02:10:47;;;;;;;19.75;12.82;;;;;;;10.12;69.61;100869.88;4998221;28;20042;-74
2022/12/02 02:13:17;;;;;;;20.98;12.95;;;;;;;10.10;69.82;100869.97;4998296;28;20102;-74
2022/12/02 02:15:46;;;;;;;20.42;13.25;;;;;;;10.08;69.79;100863.84;4998253;28;20487;-74
2022/12/02 02:18:16;;;;;;;21.95;13.20;;;;;;;10.09;69.82;100873.56;4997959;28;20084;-75
2022/12/02 02:20:44;;;;;;;22.92;12.88;;;;;;;10.08;69.87;100868.31;4997957;28;20070;-72
2022/12/02 02:23:22;;;;;;;19.42;12.88;;;;;;;10.08;69.87;100869.19;4998446;28;20042;-74
2022/12/02 02:25:53;;;;;;;21.48;13.27;;;;;;;10.08;69.76;100870.97;4998019;28;20046;-73
2022/12/02 02:28:23;;;;;;;21.27;13.13;;;;;;;10.04;69.83;100875.59;4998248;28;20057;-73
2022/12/02 02:30:53;;;;;;;21.67;13.77;;;;;;;10.05;69.72;100872.00;4997953;28;20065;-74
2022/12/02 02:33:24;;;;;;;20.58;12.85;;;;;;;10.06;69.97;100873.72;4998440;28;20058;-75
2022/12/02 02:35:52;;;;;;;20.60;13.15;;;;;;;10.06;69.76;100879.06;4996334;28;20569;-74
2022/12/02 02:38:23;;;;;;;19.90;12.52;;;;;;;10.06;69.80;100879.06;4997319;28;20554;-73
2022/12/02 02:40:53;;;;;;;21.33;13.38;;;;;;;10.04;69.86;100881.81;4997746;28;20439;-74
2022/12/02 02:43:24;;;;;;;20.85;13.18;;;;;;;10.04;69.75;100889.78;4996315;28;20046;-74
2022/12/02 02:45:54;;;;;;;18.60;12.40;;;;;;;10.05;69.50;100877.34;4997759;28;20038;-73
2022/12/02 02:48:23;;;;;;;20.05;12.30;;;;;;;10.04;69.68;100880.94;4997741;28;20058;-74
2022/12/02 02:50:51;;;;;;;18.17;11.80;;;;;;;10.05;69.60;100885.31;4997470;28;20050;-74
2022/12/02 02:53:25;;;;;;;19.40;12.05;;;;;;;10.04;69.44;100875.59;4997739;28;20073;-74
2022/12/02 02:55:54;;;;;;;17.58;11.75;;;;;;;10.04;69.54;100875.59;4997417;28;20099;-73
2022/12/02 02:58:24;;;;;;;20.58;12.65;;;;;;;10.03;69.74;100876.50;4997446;28;20372;-74
2022/12/02 03:00:55;;;;;;;19.02;11.82;;;;;;;10.03;69.62;100879.19;4997694;28;20108;-73
2022/12/02 03:03:27;;;;;;;17.38;12.00;;;;;;;10.02;69.68;100866.78;4997367;28;20046;-73
2022/12/02 03:05:56;;;;;;;19.33;12.27;;;;;;;10.02;69.74;100869.47;4997365;28;20042;-73
2022/12/02 03:08:27;;;;;;;17.90;10.90;;;;;;;10.01;69.79;100867.75;4996846;28;20038;-73
2022/12/02 03:10:57;;;;;;;18.48;11.50;;;;;;;10.01;69.77;100867.75;4997347;28;20054;-73
2022/12/02 03:13:26;;;;;;;17.98;12.20;;;;;;;9.99;69.75;100867.81;4995702;28;20120;-72
2022/12/02 03:15:55;;;;;;;19.10;11.30;;;;;;;9.98;69.65;100867.91;4997827;28;20432;-73
2022/12/02 03:18:24;;;;;;;16.52;11.20;;;;;;;9.98;69.62;100870.56;4996592;28;20066;-74
2022/12/02 03:20:52;;;;;;;16.40;10.68;;;;;;;9.97;69.56;100863.50;4995800;28;20080;-73
2022/12/02 03:23:20;;;;;;;16.83;10.75;;;;;;;9.98;69.70;100865.22;4981974;28;20101;-75
2022/12/02 03:25:50;;;;;;;16.08;10.52;;;;;;;9.96;69.57;100862.66;4988018;28;20046;-73
2022/12/02 03:28:18;;;;;;;17.55;11.25;;;;;;;9.97;69.58;100866.16;4976241;28;20055;-73
2022/12/02 03:30:47;;;;;;;17.90;10.48;;;;;;;9.96;69.65;100867.09;4977436;28;20443;-74
2022/12/02 03:33:15;;;;;;;15.82;10.23;;;;;;;9.96;69.47;100856.44;4977734;28;20050;-74
2022/12/02 03:35:43;;;;;;;16.58;10.85;;;;;;;9.96;69.46;100854.66;4977471;28;20094;-74
2022/12/02 03:38:12;;;;;;;18.52;11.07;;;;;;;9.96;69.54;100862.66;4977077;28;20101;-73
2022/12/02 03:40:40;;;;;;;16.08;10.68;;;;;;;9.96;69.52;100867.09;4977088;28;20054;-73
2022/12/02 03:43:20;;;;;;;16.98;10.95;;;;;;;9.94;69.64;100858.31;4976197;28;20074;-73
2022/12/02 03:45:49;;;;;;;14.27;10.05;;;;;;;9.93;69.42;100861.91;4976821;28;20043;-73
2022/12/02 03:48:20;;;;;;;15.95;10.40;;;;;;;9.90;69.76;100854.94;4976718;28;20073;-74
2022/12/02 03:50:50;;;;;;;14.80;9.88;;;;;;;9.91;69.56;100863.78;4977025;28;20050;-73
2022/12/02 03:53:18;;;;;;;13.63;9.45;;;;;;;9.91;69.55;100853.13;4976516;28;20522;-73
2022/12/02 03:55:47;;;;;;;14.63;9.75;;;;;;;9.89;69.57;100849.69;4976867;28;20082;-73
2022/12/02 03:58:15;;;;;;;15.70;10.02;;;;;;;9.86;69.58;100852.50;4976970;28;20038;-73
2022/12/02 04:00:45;;;;;;;16.05;10.27;;;;;;;9.86;69.73;100847.16;4976585;28;20057;-74
2022/12/02 04:03:13;;;;;;;15.60;9.73;;;;;;;9.86;69.74;100853.38;4976723;28;20476;-73
2022/12/02 04:05:41;;;;;;;16.58;10.55;;;;;;;9.87;69.63;100848.91;4976701;28;20046;-74
2022/12/02 04:08:16;;;;;;;16.52;10.43;;;;;;;9.87;69.72;100847.09;4976323;28;20082;-74
2022/12/02 04:10:44;;;;;;;15.88;10.43;;;;;;;9.88;69.60;100858.63;4976825;28;20085;-73
2022/12/02 04:13:12;;;;;;;15.60;10.02;;;;;;;9.88;69.60;100850.63;4976350;28;20495;-74
2022/12/02 04:15:40;;;;;;;15.13;9.40;;;;;;;9.86;69.50;100858.69;4976470;28;20477;-73
2022/12/02 04:18:10;;;;;;;14.80;9.77;;;;;;;9.87;69.54;100856.88;4976294;28;20045;-74
2022/12/02 04:20:38;;;;;;;14.75;9.52;;;;;;;9.86;69.52;100863.16;4976377;28;20550;-74
2022/12/02 04:23:06;;;;;;;14.90;9.77;;;;;;;9.85;69.61;100866.75;4976254;28;20051;-73
2022/12/02 04:25:34;;;;;;;15.02;9.70;;;;;;;9.85;69.60;100856.97;4976234;28;20097;-73
2022/12/02 04:28:02;;;;;;;14.02;9.68;;;;;;;9.83;69.63;100864.16;4976269;28;20081;-73
2022/12/02 04:30:30;;;;;;;15.02;9.52;;;;;;;9.85;69.45;100864.09;4976149;28;20047;-73
2022/12/02 04:32:59;;;;;;;15.15;9.57;;;;;;;9.84;69.53;100867.66;4976320;28;20054;-73
2022/12/02 04:35:28;;;;;;;15.15;9.52;;;;;;;9.84;69.45;100862.34;4976147;28;20512;-74
2022/12/02 04:37:57;;;;;;;13.50;9.20;;;;;;;9.84;69.46;100865.00;4976051;28;20071;-73
2022/12/02 04:40:25;;;;;;;13.68;9.15;;;;;;;9.84;69.43;100865.88;4976033;28;20043;-73
2022/12/02 04:42:55;;;;;;;14.07;8.77;;;;;;;9.84;69.47;100863.19;4974892;28;20098;-73
2022/12/02 04:45:23;;;;;;;13.73;9.07;;;;;;;9.84;69.38;100865.88;4975919;28;20042;-73
2022/12/02 04:47:51;;;;;;;14.48;9.50;;;;;;;9.83;69.38;100861.47;4976031;28;20054;-73
2022/12/02 04:50:19;;;;;;;13.88;9.23;;;;;;;9.84;69.24;100859.69;4975775;28;20051;-73
2022/12/02 04:52:49;;;;;;;14.98;9.20;;;;;;;9.82;69.44;100861.56;4975803;28;20058;-73
2022/12/02 04:55:17;;;;;;;15.60;9.60;;;;;;;9.80;69.60;100868.75;4975651;28;20070;-73
2022/12/02 04:57:45;;;;;;;14.55;9.02;;;;;;;9.85;69.15;100858.78;4975713;28;20142;-74
2022/12/02 05:00:15;;;;;;;14.23;8.90;;;;;;;9.87;69.19;100867.53;4990385;28;20046;-73
2022/12/02 05:02:43;;;;;;;14.23;9.00;;;;;;;9.79;69.23;100867.03;4975592;28;20443;-73
2022/12/02 05:05:12;;;;;;;14.02;8.95;;;;;;;9.77;69.40;100864.44;4975528;28;20118;-74
2022/12/02 05:07:40;;;;;;;13.50;8.40;;;;;;;9.75;69.47;100869.84;4975484;28;20047;-74
2022/12/02 05:10:10;;;;;;;13.50;8.73;;;;;;;9.75;69.88;100867.19;4975651;28;20047;-73
2022/12/02 05:12:38;;;;;;;13.88;8.85;;;;;;;9.75;69.47;100875.19;4975579;28;20082;-72
2022/12/02 05:15:08;;;;;;;12.52;8.40;;;;;;;9.78;69.35;100873.31;4974030;28;20069;-73
2022/12/02 05:17:36;;;;;;;13.15;8.85;;;;;;;9.76;69.11;100870.72;4975040;28;20534;-73
2022/12/02 05:20:10;;;;;;;13.35;9.10;;;;;;;9.75;69.47;100877.00;4976009;28;20043;-71
2022/12/02 05:22:39;;;;;;;13.18;8.50;;;;;;;9.74;69.31;100873.44;4985093;28;20104;-73
2022/12/02 05:25:07;;;;;;;13.25;8.18;;;;;;;9.73;69.33;100877.03;4994967;28;20096;-73
2022/12/02 05:27:37;;;;;;;13.10;8.82;;;;;;;9.73;69.39;100876.16;4994437;28;20046;-73
2022/12/02 05:30:07;;;;;;;12.25;8.35;;;;;;;9.72;69.40;100875.31;4975737;28;20062;-73
2022/12/02 05:32:36;;;;;;;12.40;8.63;;;;;;;9.77;69.44;100876.91;4975773;28;20536;-75
2022/12/02 05:35:04;;;;;;;14.02;8.57;;;;;;;9.80;69.25;100876.75;4974599;28;20070;-73
2022/12/02 05:37:33;;;;;;;13.90;8.80;;;;;;;9.77;69.07;100874.25;4975341;28;20440;-73
2022/12/02 05:40:02;;;;;;;14.55;8.70;;;;;;;9.77;69.01;100877.78;4974925;28;20061;-74
2022/12/02 05:42:30;;;;;;;13.23;8.30;;;;;;;9.73;69.11;100874.38;4974823;28;20057;-74
2022/12/02 05:45:06;;;;;;;12.07;8.05;;;;;;;9.69;69.28;100870.13;4974599;28;20054;-73
2022/12/02 05:47:35;;;;;;;12.90;8.35;;;;;;;9.68;69.35;100871.06;4975923;28;20411;-74
2022/12/02 05:50:11;;;;;;;12.68;8.50;;;;;;;9.68;69.27;100875.53;4994246;28;20050;-72
2022/12/02 05:52:39;;;;;;;12.07;8.18;;;;;;;9.68;69.49;100870.22;4994278;28;20391;-75
2022/12/02 05:55:14;;;;;;;12.35;7.93;;;;;;;9.75;69.28;100875.19;4993950;28;20046;-74
2022/12/02 05:57:42;;;;;;;12.10;8.40;;;;;;;9.74;69.10;100873.44;4994339;28;20121;-72
2022/12/02 06:00:18;;;;;;;13.43;8.15;;;;;;;9.79;68.93;100881.22;4993929;28;20046;-74
2022/12/02 06:02:49;;;;;;;13.43;8.23;;;;;;;9.77;68.72;100884.91;4994184;28;20424;-74
2022/12/02 06:05:19;;;;;;;12.57;8.15;;;;;;;9.78;69.01;100886.63;4994713;28;20097;-74
2022/12/02 06:07:50;;;;;;;11.50;7.80;;;;;;;9.77;68.61;100887.56;4994289;28;20065;-73
2022/12/02 06:10:25;;;;;;;13.02;8.07;;;;;;;9.75;68.90;100887.66;4993990;28;20047;-73
2022/12/02 06:12:56;;;;;;;13.70;8.02;;;;;;;9.76;68.67;100886.72;4994086;28;20046;-73
2022/12/02 06:15:27;;;;;;;12.15;8.25;;;;;;;9.74;68.77;100889.41;4993928;28;20046;-73
2022/12/02 06:17:56;;;;;;;12.68;8.10;;;;;;;9.73;68.80;100887.69;4993007;28;20050;-73
2022/12/02 06:20:28;;;;;;;12.63;8.43;;;;;;;9.70;68.91;100893.16;4993550;28;20050;-73
2022/12/02 06:22:57;;;;;;;12.77;7.70;;;;;;;9.62;69.14;100891.78;4993924;28;20440;-73
2022/12/02 06:25:28;;;;;;;14.25;7.88;;;;;;;9.64;69.25;100901.44;4993819;28;20125;-74
2022/12/02 06:28:01;;;;;;;12.20;7.82;;;;;;;9.65;69.03;100891.66;4994038;28;20089;-73
2022/12/02 06:30:39;;;;;;;13.45;8.32;;;;;;;9.64;69.06;100896.09;4993980;28;20074;-74
2022/12/02 06:33:16;;;;;;;13.40;8.52;;;;;;;9.62;69.19;100899.78;4993604;28;20064;-73
2022/12/02 06:35:50;;;;;;;12.30;7.80;;;;;;;9.60;69.11;100897.19;4992237;28;20054;-73
2022/12/02 06:38:26;;;;;;;11.13;7.63;;;;;;;9.53;69.11;100895.75;4993623;28;20042;-74
2022/12/02 06:40:55;;;;;;;12.77;8.30;;;;;;;9.62;69.11;100902.44;4993319;28;20403;-73
2022/12/02 06:43:26;;;;;;;14.45;8.10;;;;;;;9.62;69.23;100911.31;4993288;28;20047;-72
2022/12/02 06:45:56;;;;;;;13.63;8.57;;;;;;;9.61;69.51;100909.56;4993272;28;20042;-72
2022/12/02 06:48:28;;;;;;;12.65;8.57;;;;;;;9.61;69.12;100903.38;4996253;28;20054;-72
2022/12/02 06:51:00;;;;;;;11.90;7.97;;;;;;;9.61;69.29;100909.56;4996665;28;20056;-71
2022/12/02 06:53:36;;;;;;;14.52;8.63;;;;;;;9.61;68.95;100904.25;4996861;28;20488;-72
2022/12/02 06:56:07;;;;;;;11.57;7.93;;;;;;;9.60;69.12;100905.19;4995129;28;20047;-72
2022/12/02 06:58:39;;;;;;;12.02;8.18;;;;;;;9.60;69.27;100907.84;4996848;28;20050;-73
2022/12/02 07:01:20;;;;;;;11.90;7.90;;;;;;;9.59;69.10;100902.59;4997100;28;20062;-73
2022/12/02 07:04:17;;;;;;;13.23;8.23;;;;;;;9.59;69.17;100908.78;4996767;28;20288;-73
2022/12/02 07:06:50;;;;;;;12.65;7.95;;;;;;;9.60;69.14;100909.66;4997029;28;20042;-73
2022/12/02 07:09:22;;;;;;;12.43;7.95;;;;;;;9.59;69.19;100911.44;4997344;28;20083;-71
2022/12/02 07:11:53;;;;;;;11.30;8.07;;;;;;;9.60;69.02;100915.84;4995180;28;20043;-71
2022/12/02 07:14:27;;;;;;;13.35;8.48;;;;;;;9.61;69.01;100911.38;4992258;28;20042;-69
2022/12/02 07:17:00;;;;;;;12.23;8.20;;;;;;;9.61;69.15;100909.56;4995970;28;20043;-73
2022/12/02 07:19:36;;;;;;;13.13;8.10;;;;;;;9.60;69.13;100909.66;4995623;28;20069;-72
2022/12/02 07:22:14;;;;;;;13.15;7.80;;;;;;;9.60;69.16;100912.31;4987560;28;20054;-72
2022/12/02 07:24:43;;;;;;;12.57;8.38;;;;;;;9.59;68.93;100919.44;4991018;28;20038;-72
2022/12/02 07:27:20;;;;;;;12.55;8.05;;;;;;;9.60;69.00;100921.16;4994882;28;20058;-72
2022/12/02 07:29:49;;;;;;;12.93;7.88;;;;;;;9.61;68.88;100920.22;4996570;28;20046;-72
2022/12/02 07:32:19;;;;;;;12.07;7.85;;;;;;;9.61;68.95;100925.56;4996346;28;20137;-72
2022/12/02 07:34:47;;;;;;;12.63;7.75;;;;;;;9.59;69.12;100924.78;4995786;28;20043;-72
2022/12/02 07:37:16;;;;;;;12.48;7.93;;;;;;;9.59;69.12;100922.09;4999538;28;20057;-74
2022/12/02 07:39:44;;;;;;;13.27;8.50;;;;;;;9.57;69.13;100923.97;5001409;28;20053;-73
2022/12/02 07:42:13;;;;;;;13.25;8.40;;;;;;;9.58;69.34;100931.03;4997311;28;20491;-71
2022/12/02 07:44:43;;;;;;;13.73;8.27;;;;;;;9.60;69.17;100929.16;4996557;28;20050;-73
2022/12/02 07:47:11;;;;;;;12.25;7.45;;;;;;;9.62;69.12;100932.59;4996694;28;20043;-72
2022/12/02 07:49:41;;;;;;;13.70;7.85;;;;;;;9.60;69.16;100934.47;4996354;28;20050;-72
2022/12/02 07:52:09;;;;;;;13.23;8.45;;;;;;;9.64;69.21;100938.72;4996258;28;20460;-73
2022/12/02 07:54:37;;;;;;;12.10;7.88;;;;;;;9.64;69.07;100938.72;4996391;28;20046;-73
2022/12/02 07:57:05;;;;;;;11.77;7.78;;;;;;;9.64;69.09;100935.19;4996478;28;20050;-72
2022/12/02 07:59:33;;;;;;;13.48;8.00;;;;;;;9.65;69.06;100928.94;4994325;28;20058;-72
2022/12/02 08:02:02;;;;;;;12.18;8.27;;;;;;;9.66;69.02;100936.03;4995452;28;20047;-73
2022/12/02 08:04:30;;;;;;;15.25;8.35;;;;;;;9.62;69.11;100932.59;4996021;28;20142;-73
2022/12/02 08:06:59;;;;;;;12.52;8.25;;;;;;;9.60;69.16;100934.47;4995876;28;20046;-73
2022/12/02 08:09:27;;;;;;;11.65;7.35;;;;;;;9.61;69.15;100930.03;4994817;28;20049;-73
2022/12/02 08:11:56;;;;;;;11.63;7.50;;;;;;;9.61;69.35;100933.53;4995907;28;20073;-73
2022/12/02 08:14:24;;;;;;;12.15;8.05;;;;;;;9.62;69.16;100932.59;4996061;28;20046;-73
2022/12/02 08:16:52;;;;;;;11.70;7.60;;;;;;;9.66;69.08;100933.34;4996510;28;20077;-73
2022/12/02 08:19:20;;;;;;;14.13;8.45;;;;;;;9.65;69.06;100937.81;4995596;28;20050;-73
2022/12/02 08:21:49;;;;;;;14.27;8.10;;;;;;;9.69;68.92;100944.72;4995513;28;20043;-73
2022/12/02 08:24:18;;;;;;;12.52;7.50;;;;;;;9.72;68.87;100936.59;4995202;28;20054;-74
2022/12/02 08:26:47;;;;;;;13.55;8.30;;;;;;;9.74;68.75;100934.69;4996017;28;20046;-73
2022/12/02 08:29:15;;;;;;;13.68;8.45;;;;;;;9.77;68.48;100938.19;4994187;28;20055;-73
2022/12/02 08:31:43;;;;;;;13.63;8.25;;;;;;;9.73;68.80;100938.31;4995415;28;20387;-73
2022/12/02 08:34:11;;;;;;;11.88;7.68;;;;;;;9.69;68.93;100943.84;4994489;28;20050;-73
2022/12/02 08:36:39;;;;;;;12.93;8.23;;;;;;;9.71;68.80;100948.19;4995507;28;20054;-74
2022/12/02 08:39:07;;;;;;;13.48;8.00;;;;;;;9.73;68.99;100940.97;4995068;28;20583;-73
2022/12/02 08:41:37;;;;;;;13.30;7.68;;;;;;;9.72;68.96;100944.56;4995613;28;20047;-74
2022/12/02 08:44:06;;;;;;;14.48;8.43;;;;;;;9.76;68.82;100937.31;4995279;28;20043;-73
2022/12/02 08:46:35;;;;;;;12.77;7.95;;;;;;;9.71;68.93;100942.84;4993912;28;20146;-73
2022/12/02 08:49:05;;;;;;;12.05;7.47;;;;;;;9.73;68.94;100945.44;4995301;28;20085;-73
2022/12/02 08:51:33;;;;;;;14.30;8.40;;;;;;;9.71;68.99;100940.19;4995135;28;20046;-73
2022/12/02 08:54:03;;;;;;;11.82;7.60;;;;;;;9.69;69.19;100944.72;4994958;28;20126;-73
2022/12/02 08:56:31;;;;;;;12.00;7.22;;;;;;;9.68;69.26;100947.47;4994599;28;20495;-74
2022/12/02 08:59:01;;;;;;;11.90;7.75;;;;;;;9.73;69.08;100950.75;4995443;28;20125;-74
2022/12/02 09:01:30;;;;;;;13.20;8.38;;;;;;;9.74;68.90;100941.84;4994747;28;20050;-74
2022/12/02 09:03:58;;;;;;;11.18;7.05;;;;;;;9.75;68.90;100943.59;4995058;28;20043;-74
2022/12/02 09:06:26;;;;;;;11.75;7.72;;;;;;;9.75;68.81;100947.13;4995046;28;20434;-74
2022/12/02 09:09:01;;;;;;;12.35;7.85;;;;;;;9.77;68.84;100946.19;4994654;28;20034;-74
2022/12/02 09:11:29;;;;;;;14.32;8.27;;;;;;;9.77;68.87;100940.84;4992810;28;20062;-73
2022/12/02 09:13:57;;;;;;;13.77;8.18;;;;;;;9.78;69.05;100942.59;4994646;28;20125;-73
2022/12/02 09:16:27;;;;;;;13.70;8.02;;;;;;;9.74;68.86;100939.16;4995062;28;20054;-74
2022/12/02 09:18:56;;;;;;;12.68;7.97;;;;;;;9.72;68.87;100941.91;4994587;28;20454;-73
2022/12/02 09:21:24;;;;;;;12.15;7.88;;;;;;;9.72;69.03;100941.91;4993429;28;20097;-72
2022/12/02 09:23:52;;;;;;;12.73;7.50;;;;;;;9.72;69.15;100938.38;4994613;28;20073;-74
2022/12/02 09:26:21;;;;;;;13.38;7.95;;;;;;;9.71;68.89;100934.84;4993232;28;20104;-73
2022/12/02 09:28:49;;;;;;;12.02;7.95;;;;;;;9.74;69.25;100945.38;4995195;28;20042;-73
2022/12/02 09:31:17;;;;;;;11.93;8.05;;;;;;;9.74;69.04;100940.03;4994608;28;20414;-73
2022/12/02 09:33:47;;;;;;;11.68;7.35;;;;;;;9.75;69.17;100944.47;4995005;28;20109;-73
2022/12/02 09:36:15;;;;;;;12.35;7.95;;;;;;;9.78;68.78;100938.13;4994530;28;20443;-73
2022/12/02 09:38:43;;;;;;;13.88;8.27;;;;;;;9.81;68.91;100942.44;4994395;28;20046;-74
2022/12/02 09:41:11;;;;;;;12.85;7.68;;;;;;;9.80;69.06;100943.38;4994430;28;20054;-73
2022/12/02 09:43:41;;;;;;;13.65;7.88;;;;;;;9.82;68.94;100938.81;4993234;28;20051;-73
2022/12/02 09:46:09;;;;;;;15.10;8.63;;;;;;;9.82;68.89;100941.50;4997907;28;20048;-73
2022/12/02 09:48:38;;;;;;;12.90;7.88;;;;;;;9.83;68.89;100937.88;4995553;28;20054;-73
2022/12/02 09:51:10;;;;;;;12.70;8.48;;;;;;;9.79;68.97;100938.97;4994176;28;20446;-74
2022/12/02 09:53:40;;;;;;;13.40;8.48;;;;;;;9.81;68.79;100932.63;4994033;28;20045;-73
2022/12/02 09:56:14;;;;;;;11.48;7.22;;;;;;;9.82;68.93;100937.03;4994070;28;20042;-72
2022/12/02 09:58:43;;;;;;;11.80;7.38;;;;;;;9.82;68.89;100925.50;4994945;28;20050;-73
2022/12/02 10:01:12;;;;;;;12.95;8.02;;;;;;;9.83;68.97;100929.91;4992464;28;20499;-73
2022/12/02 10:03:42;;;;;;;12.52;7.47;;;;;;;9.83;68.95;100932.56;4993827;28;20096;-73
2022/12/02 10:06:25;;;;;;;13.35;8.40;;;;;;;9.88;68.78;100926.09;4993984;28;20042;-73
2022/12/02 10:08:55;;;;;;;12.73;7.93;;;;;;;9.88;68.63;100930.56;4993922;28;20101;-73
2022/12/02 10:11:27;;;;;;;12.30;8.10;;;;;;;9.83;68.96;100920.09;4994055;28;20073;-73
2022/12/02 10:13:56;;;;;;;12.07;7.82;;;;;;;9.82;69.01;100923.69;4992702;28;20484;-74
2022/12/02 10:16:26;;;;;;;12.65;8.13;;;;;;;9.82;69.16;100923.69;4993999;28;20396;-73
2022/12/02 10:18:59;;;;;;;12.98;7.75;;;;;;;9.86;68.73;100919.13;4993891;28;20046;-74
2022/12/02 10:21:31;;;;;;;12.68;8.05;;;;;;;9.87;69.01;100932.34;4995474;28;20093;-74
2022/12/02 10:24:01;;;;;;;12.80;7.80;;;;;;;9.86;69.04;100921.78;4997501;28;20550;-73
2022/12/02 10:26:43;;;;;;;10.63;7.13;;;;;;;9.83;69.07;100924.56;4997867;28;20451;-74
2022/12/02 10:29:17;;;;;;;12.75;7.25;;;;;;;9.81;69.21;100929.09;4997011;28;20046;-74
2022/12/02 10:31:57;;;;;;;15.98;8.00;;;;;;;9.86;69.03;100927.09;4997463;28;20058;-74
2022/12/02 10:34:27;;;;;;;13.32;7.70;;;;;;;9.87;68.98;100920.84;4996438;28;20105;-74
2022/12/02 10:36:57;;;;;;;12.95;7.85;;;;;;;9.88;68.90;100922.56;4996342;28;20409;-74
2022/12/02 10:39:28;;;;;;;14.63;8.07;;;;;;;9.88;68.95;100923.44;4997724;28;20054;-74
2022/12/02 10:42:19;;;;;;;11.75;7.55;;;;;;;9.87;68.94;100928.84;4996413;28;20061;-73
2022/12/02 10:45:09;;;;;;;13.43;8.13;;;;;;;9.87;69.05;100912.84;4996541;28;20057;-74
2022/12/02 10:47:37;;;;;;;12.88;7.53;;;;;;;9.91;68.73;100917.09;4997243;28;20046;-74
2022/12/02 10:50:16;;;;;;;12.35;7.68;;;;;;;9.93;68.99;100912.53;4997062;28;20048;-74
2022/12/02 10:52:48;;;;;;;12.75;7.32;;;;;;;9.89;68.87;100911.81;4997648;28;20054;-73
2022/12/02 10:55:18;;;;;;;14.52;8.10;;;;;;;9.94;68.94;100911.59;4997060;28;20138;-73
2022/12/02 10:57:47;;;;;;;13.85;8.13;;;;;;;9.96;68.63;100904.41;4997068;28;20050;-73
2022/12/02 11:00:20;;;;;;;11.63;7.75;;;;;;;9.98;68.79;100910.53;4996924;28;20455;-72
2022/12/02 11:02:50;;;;;;;11.88;7.40;;;;;;;10.02;68.52;100912.97;4997325;28;20062;-73
2022/12/02 11:05:20;;;;;;;13.30;8.52;;;;;;;10.03;68.29;100906.69;4997275;28;20101;-74
2022/12/02 11:07:56;;;;;;;13.30;7.80;;;;;;;9.99;68.44;100904.25;4997109;28;20202;-73
2022/12/02 11:10:26;;;;;;;12.48;7.70;;;;;;;9.97;68.70;100906.16;4996862;28;20488;-73
2022/12/02 11:13:04;;;;;;;12.80;8.05;;;;;;;9.96;68.72;100902.63;4997055;28;20129;-73
2022/12/02 11:15:42;;;;;;;13.23;7.97;;;;;;;9.98;68.66;100910.53;4997254;28;20046;-73
2022/12/02 11:18:13;;;;;;;12.60;7.60;;;;;;;9.96;68.71;100889.28;4996986;28;20101;-73
2022/12/02 11:20:43;;;;;;;12.60;7.88;;;;;;;10.04;68.76;100903.13;4997712;28;20059;-72
2022/12/02 11:23:25;;;;;;;12.75;7.70;;;;;;;10.02;68.74;100904.09;4997012;28;20043;-73
2022/12/02 11:26:08;;;;;;;12.50;7.65;;;;;;;10.06;68.72;100900.38;4997069;28;20133;-73
2022/12/02 11:28:59;;;;;;;13.18;7.25;;;;;;;10.06;68.78;100897.72;4996978;28;20048;-73
2022/12/02 11:31:28;;;;;;;13.68;7.70;;;;;;;10.07;69.15;100896.78;4996692;28;20117;-74
2022/12/02 11:34:21;;;;;;;10.85;6.93;;;;;;;9.98;68.97;100887.41;4994480;28;20046;-72
2022/12/02 11:37:33;;;;;;;12.93;7.75;;;;;;;10.03;69.13;100895.19;4993258;28;20081;-73